Wausau Downtown Airport
KAUW : now visible

Airfield :











YOU CAN JOIN US ON...

 
LOGIN :

Register | Disclaimer

   EN    FR    IT 

 









Legend :    VFR   Marginal VFR   IFR   Intensive IFR   Very Intensive IFR
Visi :
Ceiling :
>= 8 km
>= 3000ft
5 to 8 km
1000 to 3000 ft
1500m to 5 km
500 to 1000 ft
800 to 1500m
200 to 500 ft
< 800m
< 200 ft
Symbols :   Thunderstorms  Fog  Heavy snow  Heavy precipitations  Wind > 20 kt






- Airport Elevation : 1201 ft


KAUW - Wausau Downtown

CURRENT METAR :
  • 081954Z AUTO VRB06KT 10SM BKN020 OVC034 26/21 A2998 RMK AO2 SLP148 T02610211

EXPIRED METARs :
  • 081854Z AUTO 22007KT 10SM SCT018 BKN026 BKN033 24/20 A2999 RMK AO2 SLP153 T02440200
  • 081754Z AUTO 20010G19KT 10SM OVC018 22/19 A3001 RMK AO2 SLP161 60002 T02220194 10239 20178 58003
  • 081730Z AUTO 21009KT 10SM BKN019 BKN035 OVC070 22/19 A3002 RMK AO2 T02220189

TAF KAUW
Valid from the 08 at 20:00 until the 09 at 18:00 UTC


081944Z 0820/0918 22007G14KT P6SM BKN020
FM082100 23008G16KT P6SM SCT020 BKN030
FM090100 22004KT P6SM BKN050
FM090800 VRB03KT 3SM BR BKN035
FM091300 17010KT P6SM BKN040
KZMP FIR / North America



MET'MAP, your aeronautical weather chart ! - Copyright ORBIFLY December 2007 - Disclaimer

ORBIFLY MET'MAP TEAM :

Programming & Development : Alexandra Zaïnal
Concept & original design : Baudouin d'Aumeries
Assistance for programming : Marc-Olivier Méhu
Technical & hardware support : Manuel Goepfert

Contact : metmap@orbifly.com




SOURCES & CREDITS :

   NOAA       Earth
Advisory